sensor_id;sensor_type;location;lat;lon;timestamp;P1;durP1;ratioP1;P2;durP2;ratioP2
15451;SDS011;7827;53.594;9.938;2023-04-10T00:01:44;67.20;;;41.93;;
15451;SDS011;7827;53.594;9.938;2023-04-10T00:04:13;66.73;;;43.17;;
15451;SDS011;7827;53.594;9.938;2023-04-10T00:06:42;69.87;;;45.43;;
15451;SDS011;7827;53.594;9.938;2023-04-10T00:09:10;70.50;;;45.03;;
15451;SDS011;7827;53.594;9.938;2023-04-10T00:11:38;78.20;;;48.53;;
15451;SDS011;7827;53.594;9.938;2023-04-10T00:14:07;87.40;;;50.40;;
15451;SDS011;7827;53.594;9.938;2023-04-10T00:16:35;85.20;;;52.43;;
15451;SDS011;7827;53.594;9.938;2023-04-10T00:19:05;76.93;;;48.17;;
15451;SDS011;7827;53.594;9.938;2023-04-10T00:21:33;66.83;;;44.37;;
15451;SDS011;7827;53.594;9.938;2023-04-10T00:24:02;66.43;;;42.73;;
15451;SDS011;7827;53.594;9.938;2023-04-10T00:26:30;62.50;;;39.30;;
15451;SDS011;7827;53.594;9.938;2023-04-10T00:28:59;60.83;;;38.67;;
15451;SDS011;7827;53.594;9.938;2023-04-10T00:31:27;54.90;;;35.57;;
15451;SDS011;7827;53.594;9.938;2023-04-10T00:33:57;53.27;;;34.67;;
15451;SDS011;7827;53.594;9.938;2023-04-10T00:36:26;47.57;;;32.00;;
15451;SDS011;7827;53.594;9.938;2023-04-10T00:38:55;49.40;;;32.77;;
15451;SDS011;7827;53.594;9.938;2023-04-10T00:41:23;45.57;;;31.97;;
15451;SDS011;7827;53.594;9.938;2023-04-10T00:43:54;47.63;;;31.93;;
15451;SDS011;7827;53.594;9.938;2023-04-10T00:46:23;47.40;;;31.37;;
15451;SDS011;7827;53.594;9.938;2023-04-10T00:48:53;43.93;;;30.60;;
15451;SDS011;7827;53.594;9.938;2023-04-10T00:51:23;43.83;;;30.20;;
15451;SDS011;7827;53.594;9.938;2023-04-10T00:53:53;41.70;;;29.63;;
15451;SDS011;7827;53.594;9.938;2023-04-10T00:56:23;46.00;;;30.87;;
15451;SDS011;7827;53.594;9.938;2023-04-10T00:58:51;43.85;;;30.00;;
15451;SDS011;7827;53.594;9.938;2023-04-10T01:01:20;46.08;;;30.05;;
15451;SDS011;7827;53.594;9.938;2023-04-10T01:03:48;45.38;;;31.15;;
15451;SDS011;7827;53.594;9.938;2023-04-10T01:06:18;46.57;;;31.67;;
15451;SDS011;7827;53.594;9.938;2023-04-10T01:09:00;42.53;;;30.70;;
15451;SDS011;7827;53.594;9.938;2023-04-10T01:11:44;43.17;;;30.30;;
15451;SDS011;7827;53.594;9.938;2023-04-10T01:14:22;42.90;;;30.03;;
15451;SDS011;7827;53.594;9.938;2023-04-10T01:17:00;46.50;;;32.27;;
15451;SDS011;7827;53.594;9.938;2023-04-10T01:19:40;52.97;;;36.07;;
15451;SDS011;7827;53.594;9.938;2023-04-10T01:22:40;53.10;;;35.27;;
15451;SDS011;7827;53.594;9.938;2023-04-10T01:25:39;57.83;;;37.33;;
15451;SDS011;7827;53.594;9.938;2023-04-10T01:28:23;63.57;;;42.27;;
15451;SDS011;7827;53.594;9.938;2023-04-10T01:31:18;66.87;;;44.10;;
15451;SDS011;7827;53.594;9.938;2023-04-10T01:33:56;65.63;;;43.87;;
15451;SDS011;7827;53.594;9.938;2023-04-10T01:36:35;72.33;;;41.00;;
15451;SDS011;7827;53.594;9.938;2023-04-10T01:39:10;66.13;;;42.70;;
15451;SDS011;7827;53.594;9.938;2023-04-10T01:41:40;64.07;;;42.13;;
15451;SDS011;7827;53.594;9.938;2023-04-10T01:44:14;66.03;;;42.47;;
15451;SDS011;7827;53.594;9.938;2023-04-10T01:46:46;59.90;;;41.40;;
15451;SDS011;7827;53.594;9.938;2023-04-10T01:49:16;55.17;;;37.23;;
15451;SDS011;7827;53.594;9.938;2023-04-10T01:51:46;58.10;;;37.83;;
15451;SDS011;7827;53.594;9.938;2023-04-10T01:54:17;53.87;;;36.47;;
15451;SDS011;7827;53.594;9.938;2023-04-10T01:56:45;48.17;;;33.87;;
15451;SDS011;7827;53.594;9.938;2023-04-10T01:59:16;48.27;;;32.30;;
15451;SDS011;7827;53.594;9.938;2023-04-10T02:01:45;51.77;;;33.23;;
15451;SDS011;7827;53.594;9.938;2023-04-10T02:04:15;51.93;;;33.40;;
15451;SDS011;7827;53.594;9.938;2023-04-10T02:06:49;50.93;;;31.93;;
15451;SDS011;7827;53.594;9.938;2023-04-10T02:09:31;44.73;;;30.83;;
15451;SDS011;7827;53.594;9.938;2023-04-10T02:12:12;44.70;;;30.50;;
15451;SDS011;7827;53.594;9.938;2023-04-10T02:14:48;46.43;;;30.77;;
15451;SDS011;7827;53.594;9.938;2023-04-10T02:17:23;46.30;;;30.73;;
15451;SDS011;7827;53.594;9.938;2023-04-10T02:19:56;44.10;;;29.67;;
15451;SDS011;7827;53.594;9.938;2023-04-10T02:22:26;39.43;;;28.17;;
15451;SDS011;7827;53.594;9.938;2023-04-10T02:24:56;43.33;;;29.47;;
15451;SDS011;7827;53.594;9.938;2023-04-10T02:27:26;42.90;;;29.20;;
15451;SDS011;7827;53.594;9.938;2023-04-10T02:29:58;42.00;;;28.00;;
15451;SDS011;7827;53.594;9.938;2023-04-10T02:32:30;41.07;;;28.27;;
15451;SDS011;7827;53.594;9.938;2023-04-10T02:34:59;42.03;;;27.77;;
15451;SDS011;7827;53.594;9.938;2023-04-10T02:37:28;41.27;;;28.27;;
15451;SDS011;7827;53.594;9.938;2023-04-10T02:40:00;39.40;;;27.53;;
15451;SDS011;7827;53.594;9.938;2023-04-10T02:42:36;43.73;;;29.07;;
15451;SDS011;7827;53.594;9.938;2023-04-10T02:45:07;42.00;;;29.73;;
15451;SDS011;7827;53.594;9.938;2023-04-10T02:47:40;40.97;;;28.43;;
15451;SDS011;7827;53.594;9.938;2023-04-10T02:50:09;42.43;;;28.80;;
15451;SDS011;7827;53.594;9.938;2023-04-10T02:52:41;38.20;;;27.57;;
15451;SDS011;7827;53.594;9.938;2023-04-10T02:55:09;41.90;;;28.23;;
15451;SDS011;7827;53.594;9.938;2023-04-10T02:57:39;40.20;;;28.50;;
15451;SDS011;7827;53.594;9.938;2023-04-10T03:00:10;41.57;;;28.63;;
15451;SDS011;7827;53.594;9.938;2023-04-10T03:03:18;42.90;;;29.40;;
15451;SDS011;7827;53.594;9.938;2023-04-10T03:05:51;44.00;;;28.83;;
15451;SDS011;7827;53.594;9.938;2023-04-10T03:08:26;42.77;;;28.50;;
15451;SDS011;7827;53.594;9.938;2023-04-10T03:10:55;40.70;;;28.40;;
15451;SDS011;7827;53.594;9.938;2023-04-10T03:13:24;41.73;;;27.80;;
15451;SDS011;7827;53.594;9.938;2023-04-10T03:15:53;42.97;;;29.73;;
15451;SDS011;7827;53.594;9.938;2023-04-10T03:18:22;41.87;;;29.40;;
15451;SDS011;7827;53.594;9.938;2023-04-10T03:20:52;43.37;;;28.77;;
15451;SDS011;7827;53.594;9.938;2023-04-10T03:23:20;42.70;;;28.67;;
15451;SDS011;7827;53.594;9.938;2023-04-10T03:25:49;41.40;;;28.07;;
15451;SDS011;7827;53.594;9.938;2023-04-10T03:28:21;41.87;;;28.17;;
15451;SDS011;7827;53.594;9.938;2023-04-10T03:30:49;40.57;;;27.50;;
15451;SDS011;7827;53.594;9.938;2023-04-10T03:33:19;41.07;;;28.50;;
15451;SDS011;7827;53.594;9.938;2023-04-10T03:35:48;45.23;;;29.73;;
15451;SDS011;7827;53.594;9.938;2023-04-10T03:38:16;40.70;;;27.60;;
15451;SDS011;7827;53.594;9.938;2023-04-10T03:40:45;40.50;;;28.43;;
15451;SDS011;7827;53.594;9.938;2023-04-10T03:43:14;42.27;;;29.03;;
15451;SDS011;7827;53.594;9.938;2023-04-10T03:45:43;39.23;;;27.47;;
15451;SDS011;7827;53.594;9.938;2023-04-10T03:48:13;45.00;;;30.13;;
15451;SDS011;7827;53.594;9.938;2023-04-10T03:50:46;42.50;;;29.60;;
15451;SDS011;7827;53.594;9.938;2023-04-10T03:53:14;38.77;;;28.20;;
15451;SDS011;7827;53.594;9.938;2023-04-10T03:55:43;44.80;;;28.63;;
15451;SDS011;7827;53.594;9.938;2023-04-10T03:58:12;44.87;;;29.97;;
15451;SDS011;7827;53.594;9.938;2023-04-10T04:00:40;45.87;;;28.37;;
15451;SDS011;7827;53.594;9.938;2023-04-10T04:03:22;43.63;;;29.73;;
15451;SDS011;7827;53.594;9.938;2023-04-10T04:06:05;41.27;;;27.37;;
15451;SDS011;7827;53.594;9.938;2023-04-10T04:08:41;45.63;;;28.37;;
15451;SDS011;7827;53.594;9.938;2023-04-10T04:11:38;43.70;;;29.47;;
15451;SDS011;7827;53.594;9.938;2023-04-10T04:14:26;46.57;;;29.87;;
15451;SDS011;7827;53.594;9.938;2023-04-10T04:17:09;45.03;;;30.87;;
15451;SDS011;7827;53.594;9.938;2023-04-10T04:19:53;46.27;;;29.10;;
15451;SDS011;7827;53.594;9.938;2023-04-10T04:22:46;44.00;;;28.60;;
15451;SDS011;7827;53.594;9.938;2023-04-10T04:25:32;41.73;;;27.93;;
15451;SDS011;7827;53.594;9.938;2023-04-10T04:28:14;45.87;;;29.27;;
15451;SDS011;7827;53.594;9.938;2023-04-10T04:31:01;42.20;;;28.67;;
15451;SDS011;7827;53.594;9.938;2023-04-10T04:34:01;45.23;;;29.10;;
15451;SDS011;7827;53.594;9.938;2023-04-10T04:36:48;44.50;;;29.07;;
15451;SDS011;7827;53.594;9.938;2023-04-10T04:39:37;44.93;;;29.17;;
15451;SDS011;7827;53.594;9.938;2023-04-10T04:42:18;43.43;;;28.43;;
15451;SDS011;7827;53.594;9.938;2023-04-10T04:45:05;41.47;;;28.30;;
15451;SDS011;7827;53.594;9.938;2023-04-10T04:47:54;40.47;;;28.00;;
15451;SDS011;7827;53.594;9.938;2023-04-10T04:50:31;44.70;;;29.17;;
15451;SDS011;7827;53.594;9.938;2023-04-10T04:53:13;44.10;;;29.13;;
15451;SDS011;7827;53.594;9.938;2023-04-10T04:56:05;43.20;;;29.33;;
15451;SDS011;7827;53.594;9.938;2023-04-10T04:59:04;43.00;;;29.10;;
15451;SDS011;7827;53.594;9.938;2023-04-10T05:01:53;46.10;;;28.93;;
15451;SDS011;7827;53.594;9.938;2023-04-10T05:04:51;42.67;;;29.07;;
15451;SDS011;7827;53.594;9.938;2023-04-10T05:07:30;42.13;;;28.50;;
15451;SDS011;7827;53.594;9.938;2023-04-10T05:10:13;47.13;;;29.87;;
15451;SDS011;7827;53.594;9.938;2023-04-10T05:13:07;44.93;;;29.07;;
15451;SDS011;7827;53.594;9.938;2023-04-10T05:15:52;45.90;;;30.23;;
15451;SDS011;7827;53.594;9.938;2023-04-10T05:18:40;43.40;;;27.77;;
15451;SDS011;7827;53.594;9.938;2023-04-10T05:21:21;40.60;;;28.10;;
15451;SDS011;7827;53.594;9.938;2023-04-10T05:24:08;42.47;;;28.90;;
15451;SDS011;7827;53.594;9.938;2023-04-10T05:26:43;40.17;;;27.07;;
15451;SDS011;7827;53.594;9.938;2023-04-10T05:29:25;44.93;;;30.10;;
15451;SDS011;7827;53.594;9.938;2023-04-10T05:32:12;46.40;;;28.90;;
15451;SDS011;7827;53.594;9.938;2023-04-10T05:35:10;40.60;;;28.63;;
15451;SDS011;7827;53.594;9.938;2023-04-10T05:37:46;44.17;;;28.40;;
15451;SDS011;7827;53.594;9.938;2023-04-10T05:40:25;44.03;;;29.47;;
15451;SDS011;7827;53.594;9.938;2023-04-10T05:43:14;38.40;;;27.23;;
15451;SDS011;7827;53.594;9.938;2023-04-10T05:46:16;48.47;;;29.57;;
15451;SDS011;7827;53.594;9.938;2023-04-10T05:49:11;39.83;;;28.07;;
15451;SDS011;7827;53.594;9.938;2023-04-10T05:51:59;40.90;;;27.77;;
15451;SDS011;7827;53.594;9.938;2023-04-10T05:54:37;41.07;;;27.87;;
15451;SDS011;7827;53.594;9.938;2023-04-10T05:57:05;40.03;;;27.00;;
15451;SDS011;7827;53.594;9.938;2023-04-10T05:59:52;41.17;;;28.17;;
15451;SDS011;7827;53.594;9.938;2023-04-10T06:02:45;38.43;;;28.07;;
15451;SDS011;7827;53.594;9.938;2023-04-10T06:05:21;39.33;;;26.77;;
15451;SDS011;7827;53.594;9.938;2023-04-10T06:07:56;42.43;;;28.80;;
15451;SDS011;7827;53.594;9.938;2023-04-10T06:10:27;38.83;;;27.53;;
15451;SDS011;7827;53.594;9.938;2023-04-10T06:12:56;37.30;;;26.20;;
15451;SDS011;7827;53.594;9.938;2023-04-10T06:15:25;40.43;;;27.33;;
15451;SDS011;7827;53.594;9.938;2023-04-10T06:17:54;37.90;;;27.10;;
15451;SDS011;7827;53.594;9.938;2023-04-10T06:20:23;39.13;;;27.83;;
15451;SDS011;7827;53.594;9.938;2023-04-10T06:22:52;37.80;;;25.83;;
15451;SDS011;7827;53.594;9.938;2023-04-10T06:25:20;40.07;;;27.73;;
15451;SDS011;7827;53.594;9.938;2023-04-10T06:27:48;39.40;;;27.17;;
15451;SDS011;7827;53.594;9.938;2023-04-10T06:30:17;41.10;;;28.10;;
15451;SDS011;7827;53.594;9.938;2023-04-10T06:32:46;41.53;;;27.33;;
15451;SDS011;7827;53.594;9.938;2023-04-10T06:35:16;37.70;;;26.60;;
15451;SDS011;7827;53.594;9.938;2023-04-10T06:37:44;36.57;;;27.43;;
15451;SDS011;7827;53.594;9.938;2023-04-10T06:40:14;39.20;;;27.20;;
15451;SDS011;7827;53.594;9.938;2023-04-10T06:42:42;38.43;;;27.23;;
15451;SDS011;7827;53.594;9.938;2023-04-10T06:45:21;38.77;;;26.97;;
15451;SDS011;7827;53.594;9.938;2023-04-10T06:47:50;37.20;;;26.63;;
15451;SDS011;7827;53.594;9.938;2023-04-10T06:50:20;37.00;;;26.83;;
15451;SDS011;7827;53.594;9.938;2023-04-10T06:52:48;39.03;;;27.40;;
15451;SDS011;7827;53.594;9.938;2023-04-10T06:55:18;37.80;;;27.00;;
15451;SDS011;7827;53.594;9.938;2023-04-10T06:57:47;39.00;;;26.93;;
15451;SDS011;7827;53.594;9.938;2023-04-10T07:00:15;37.77;;;26.57;;
15451;SDS011;7827;53.594;9.938;2023-04-10T07:02:46;35.20;;;25.17;;
15451;SDS011;7827;53.594;9.938;2023-04-10T07:05:17;33.30;;;25.07;;
15451;SDS011;7827;53.594;9.938;2023-04-10T07:07:47;36.65;;;25.50;;
15451;SDS011;7827;53.594;9.938;2023-04-10T07:10:17;34.22;;;25.33;;
15451;SDS011;7827;53.594;9.938;2023-04-10T07:12:45;35.72;;;26.83;;
15451;SDS011;7827;53.594;9.938;2023-04-10T07:15:13;35.10;;;25.42;;
15451;SDS011;7827;53.594;9.938;2023-04-10T07:17:42;33.58;;;25.92;;
15451;SDS011;7827;53.594;9.938;2023-04-10T07:20:10;34.17;;;25.40;;
15451;SDS011;7827;53.594;9.938;2023-04-10T07:22:39;33.80;;;24.80;;
15451;SDS011;7827;53.594;9.938;2023-04-10T07:25:09;35.65;;;27.05;;
15451;SDS011;7827;53.594;9.938;2023-04-10T07:27:37;33.45;;;24.42;;
15451;SDS011;7827;53.594;9.938;2023-04-10T07:30:06;35.85;;;26.08;;
15451;SDS011;7827;53.594;9.938;2023-04-10T07:32:38;31.83;;;23.88;;
15451;SDS011;7827;53.594;9.938;2023-04-10T07:35:08;32.53;;;25.15;;
15451;SDS011;7827;53.594;9.938;2023-04-10T07:37:36;34.75;;;25.00;;
15451;SDS011;7827;53.594;9.938;2023-04-10T07:40:06;31.52;;;23.33;;
15451;SDS011;7827;53.594;9.938;2023-04-10T07:42:37;29.88;;;23.38;;
15451;SDS011;7827;53.594;9.938;2023-04-10T07:45:06;31.25;;;23.38;;
15451;SDS011;7827;53.594;9.938;2023-04-10T07:47:36;33.42;;;23.83;;
15451;SDS011;7827;53.594;9.938;2023-04-10T07:50:05;32.88;;;22.77;;
15451;SDS011;7827;53.594;9.938;2023-04-10T07:52:35;31.50;;;24.17;;
15451;SDS011;7827;53.594;9.938;2023-04-10T07:55:03;32.70;;;23.52;;
15451;SDS011;7827;53.594;9.938;2023-04-10T07:57:34;31.60;;;23.35;;
15451;SDS011;7827;53.594;9.938;2023-04-10T08:00:02;30.65;;;23.17;;
15451;SDS011;7827;53.594;9.938;2023-04-10T08:02:39;30.25;;;23.25;;
15451;SDS011;7827;53.594;9.938;2023-04-10T08:05:07;28.10;;;22.38;;
15451;SDS011;7827;53.594;9.938;2023-04-10T08:07:36;27.38;;;21.90;;
15451;SDS011;7827;53.594;9.938;2023-04-10T08:10:05;29.35;;;22.23;;
15451;SDS011;7827;53.594;9.938;2023-04-10T08:12:35;28.92;;;22.80;;
15451;SDS011;7827;53.594;9.938;2023-04-10T08:15:04;29.50;;;22.25;;
15451;SDS011;7827;53.594;9.938;2023-04-10T08:17:33;30.65;;;22.00;;
15451;SDS011;7827;53.594;9.938;2023-04-10T08:20:02;28.48;;;22.33;;
15451;SDS011;7827;53.594;9.938;2023-04-10T08:22:31;27.73;;;20.88;;
15451;SDS011;7827;53.594;9.938;2023-04-10T08:25:00;27.65;;;22.50;;
15451;SDS011;7827;53.594;9.938;2023-04-10T08:27:28;28.00;;;21.30;;
15451;SDS011;7827;53.594;9.938;2023-04-10T08:29:58;26.30;;;20.63;;
15451;SDS011;7827;53.594;9.938;2023-04-10T08:32:26;25.90;;;20.88;;
15451;SDS011;7827;53.594;9.938;2023-04-10T08:34:55;29.67;;;21.83;;
15451;SDS011;7827;53.594;9.938;2023-04-10T08:37:24;25.35;;;20.77;;
15451;SDS011;7827;53.594;9.938;2023-04-10T08:39:52;27.98;;;21.63;;
15451;SDS011;7827;53.594;9.938;2023-04-10T08:42:21;29.90;;;20.88;;
15451;SDS011;7827;53.594;9.938;2023-04-10T08:44:51;24.95;;;21.00;;
15451;SDS011;7827;53.594;9.938;2023-04-10T08:47:21;27.00;;;21.17;;
15451;SDS011;7827;53.594;9.938;2023-04-10T08:49:55;26.92;;;21.70;;
15451;SDS011;7827;53.594;9.938;2023-04-10T08:52:24;26.23;;;20.15;;
15451;SDS011;7827;53.594;9.938;2023-04-10T08:54:56;23.65;;;19.20;;
15451;SDS011;7827;53.594;9.938;2023-04-10T08:57:32;23.73;;;18.50;;
15451;SDS011;7827;53.594;9.938;2023-04-10T09:00:04;25.30;;;20.35;;
15451;SDS011;7827;53.594;9.938;2023-04-10T09:02:49;20.40;;;17.42;;
15451;SDS011;7827;53.594;9.938;2023-04-10T09:05:24;23.88;;;19.23;;
15451;SDS011;7827;53.594;9.938;2023-04-10T09:07:54;26.10;;;18.77;;
15451;SDS011;7827;53.594;9.938;2023-04-10T09:10:22;22.33;;;18.73;;
15451;SDS011;7827;53.594;9.938;2023-04-10T09:12:51;21.33;;;18.10;;
15451;SDS011;7827;53.594;9.938;2023-04-10T09:15:19;22.08;;;18.30;;
15451;SDS011;7827;53.594;9.938;2023-04-10T09:17:59;20.48;;;16.33;;
15451;SDS011;7827;53.594;9.938;2023-04-10T09:20:30;21.60;;;18.65;;
15451;SDS011;7827;53.594;9.938;2023-04-10T09:22:59;19.35;;;16.55;;
15451;SDS011;7827;53.594;9.938;2023-04-10T09:25:28;23.73;;;17.23;;
15451;SDS011;7827;53.594;9.938;2023-04-10T09:28:02;19.65;;;16.15;;
15451;SDS011;7827;53.594;9.938;2023-04-10T09:30:33;20.48;;;15.50;;
15451;SDS011;7827;53.594;9.938;2023-04-10T09:33:21;18.92;;;15.00;;
15451;SDS011;7827;53.594;9.938;2023-04-10T09:35:52;18.77;;;14.63;;
15451;SDS011;7827;53.594;9.938;2023-04-10T09:38:25;18.70;;;14.20;;
15451;SDS011;7827;53.594;9.938;2023-04-10T09:40:53;15.60;;;13.68;;
15451;SDS011;7827;53.594;9.938;2023-04-10T09:43:34;16.45;;;14.13;;
15451;SDS011;7827;53.594;9.938;2023-04-10T09:46:04;17.08;;;13.07;;
15451;SDS011;7827;53.594;9.938;2023-04-10T09:48:34;16.52;;;13.95;;
15451;SDS011;7827;53.594;9.938;2023-04-10T09:51:03;17.23;;;14.60;;
15451;SDS011;7827;53.594;9.938;2023-04-10T09:53:32;16.50;;;13.95;;
15451;SDS011;7827;53.594;9.938;2023-04-10T09:56:15;16.13;;;14.13;;
15451;SDS011;7827;53.594;9.938;2023-04-10T09:58:45;17.95;;;14.65;;
15451;SDS011;7827;53.594;9.938;2023-04-10T10:01:14;16.42;;;13.57;;
15451;SDS011;7827;53.594;9.938;2023-04-10T10:03:45;14.32;;;12.27;;
15451;SDS011;7827;53.594;9.938;2023-04-10T10:06:14;13.32;;;11.80;;
15451;SDS011;7827;53.594;9.938;2023-04-10T10:08:43;13.55;;;12.00;;
15451;SDS011;7827;53.594;9.938;2023-04-10T10:11:12;13.77;;;11.80;;
15451;SDS011;7827;53.594;9.938;2023-04-10T10:13:46;13.02;;;10.40;;
15451;SDS011;7827;53.594;9.938;2023-04-10T10:16:19;12.35;;;11.05;;
15451;SDS011;7827;53.594;9.938;2023-04-10T10:18:58;13.90;;;11.93;;
15451;SDS011;7827;53.594;9.938;2023-04-10T10:21:35;14.88;;;10.30;;
15451;SDS011;7827;53.594;9.938;2023-04-10T10:24:06;12.15;;;10.38;;
15451;SDS011;7827;53.594;9.938;2023-04-10T10:26:37;12.65;;;10.98;;
15451;SDS011;7827;53.594;9.938;2023-04-10T10:29:07;12.00;;;10.70;;
15451;SDS011;7827;53.594;9.938;2023-04-10T10:31:38;12.93;;;11.07;;
15451;SDS011;7827;53.594;9.938;2023-04-10T10:34:09;14.88;;;10.60;;
15451;SDS011;7827;53.594;9.938;2023-04-10T10:36:38;11.32;;;9.68;;
15451;SDS011;7827;53.594;9.938;2023-04-10T10:39:12;13.18;;;10.90;;
15451;SDS011;7827;53.594;9.938;2023-04-10T10:41:57;12.13;;;10.38;;
15451;SDS011;7827;53.594;9.938;2023-04-10T10:44:40;11.73;;;9.95;;
15451;SDS011;7827;53.594;9.938;2023-04-10T10:47:16;12.35;;;9.75;;
15451;SDS011;7827;53.594;9.938;2023-04-10T10:49:57;10.88;;;9.48;;
15451;SDS011;7827;53.594;9.938;2023-04-10T10:52:40;10.57;;;9.48;;
15451;SDS011;7827;53.594;9.938;2023-04-10T10:55:32;11.88;;;9.55;;
15451;SDS011;7827;53.594;9.938;2023-04-10T10:58:02;10.98;;;9.50;;
15451;SDS011;7827;53.594;9.938;2023-04-10T11:03:36;10.38;;;8.93;;
15451;SDS011;7827;53.594;9.938;2023-04-10T11:06:07;9.68;;;8.68;;
15451;SDS011;7827;53.594;9.938;2023-04-10T11:08:41;8.82;;;7.93;;
15451;SDS011;7827;53.594;9.938;2023-04-10T11:11:13;9.15;;;7.97;;
15451;SDS011;7827;53.594;9.938;2023-04-10T11:16:44;7.95;;;7.15;;
15451;SDS011;7827;53.594;9.938;2023-04-10T11:19:14;8.85;;;7.95;;
15451;SDS011;7827;53.594;9.938;2023-04-10T11:22:06;9.77;;;8.18;;
15451;SDS011;7827;53.594;9.938;2023-04-10T11:24:50;10.07;;;8.65;;
15451;SDS011;7827;53.594;9.938;2023-04-10T11:30:31;9.20;;;8.30;;
15451;SDS011;7827;53.594;9.938;2023-04-10T11:33:02;9.57;;;7.90;;
15451;SDS011;7827;53.594;9.938;2023-04-10T11:35:32;7.90;;;7.10;;
15451;SDS011;7827;53.594;9.938;2023-04-10T11:38:08;8.18;;;7.38;;
15451;SDS011;7827;53.594;9.938;2023-04-10T11:40:59;8.07;;;7.25;;
15451;SDS011;7827;53.594;9.938;2023-04-10T11:43:30;10.00;;;7.85;;
15451;SDS011;7827;53.594;9.938;2023-04-10T11:46:01;11.57;;;7.97;;
15451;SDS011;7827;53.594;9.938;2023-04-10T11:48:33;7.45;;;6.75;;
15451;SDS011;7827;53.594;9.938;2023-04-10T11:51:06;9.15;;;7.63;;
15451;SDS011;7827;53.594;9.938;2023-04-10T11:53:37;8.18;;;7.38;;
15451;SDS011;7827;53.594;9.938;2023-04-10T11:56:13;8.15;;;7.10;;
15451;SDS011;7827;53.594;9.938;2023-04-10T11:58:50;7.03;;;5.88;;
15451;SDS011;7827;53.594;9.938;2023-04-10T12:01:20;7.07;;;6.20;;
15451;SDS011;7827;53.594;9.938;2023-04-10T12:03:49;7.80;;;7.00;;
15451;SDS011;7827;53.594;9.938;2023-04-10T12:06:18;8.02;;;6.70;;
15451;SDS011;7827;53.594;9.938;2023-04-10T12:08:48;7.75;;;6.35;;
15451;SDS011;7827;53.594;9.938;2023-04-10T12:11:17;7.75;;;6.70;;
15451;SDS011;7827;53.594;9.938;2023-04-10T12:13:50;7.00;;;6.30;;
15451;SDS011;7827;53.594;9.938;2023-04-10T12:16:19;7.22;;;6.53;;
15451;SDS011;7827;53.594;9.938;2023-04-10T12:18:48;7.95;;;7.15;;
15451;SDS011;7827;53.594;9.938;2023-04-10T12:21:18;7.97;;;7.18;;
15451;SDS011;7827;53.594;9.938;2023-04-10T12:23:48;7.85;;;7.05;;
15451;SDS011;7827;53.594;9.938;2023-04-10T12:26:17;7.72;;;6.95;;
15451;SDS011;7827;53.594;9.938;2023-04-10T12:28:50;7.22;;;6.20;;
15451;SDS011;7827;53.594;9.938;2023-04-10T12:31:27;7.53;;;6.55;;
15451;SDS011;7827;53.594;9.938;2023-04-10T12:33:57;7.80;;;6.95;;
15451;SDS011;7827;53.594;9.938;2023-04-10T12:36:26;6.97;;;6.28;;
15451;SDS011;7827;53.594;9.938;2023-04-10T12:39:01;6.72;;;6.03;;
15451;SDS011;7827;53.594;9.938;2023-04-10T12:41:32;7.20;;;6.50;;
15451;SDS011;7827;53.594;9.938;2023-04-10T12:44:05;10.82;;;5.75;;
15451;SDS011;7827;53.594;9.938;2023-04-10T12:46:36;7.38;;;6.20;;
15451;SDS011;7827;53.594;9.938;2023-04-10T12:49:09;7.00;;;6.30;;
15451;SDS011;7827;53.594;9.938;2023-04-10T12:51:40;8.60;;;6.07;;
15451;SDS011;7827;53.594;9.938;2023-04-10T12:54:30;6.18;;;5.57;;
15451;SDS011;7827;53.594;9.938;2023-04-10T12:57:00;6.00;;;5.40;;
15451;SDS011;7827;53.594;9.938;2023-04-10T12:59:30;5.38;;;4.88;;
15451;SDS011;7827;53.594;9.938;2023-04-10T13:01:59;6.82;;;5.53;;
15451;SDS011;7827;53.594;9.938;2023-04-10T13:04:28;7.55;;;5.10;;
15451;SDS011;7827;53.594;9.938;2023-04-10T13:06:58;6.35;;;5.07;;
15451;SDS011;7827;53.594;9.938;2023-04-10T13:09:26;6.75;;;5.35;;
15451;SDS011;7827;53.594;9.938;2023-04-10T13:11:56;5.47;;;4.90;;
15451;SDS011;7827;53.594;9.938;2023-04-10T13:14:24;6.63;;;5.72;;
15451;SDS011;7827;53.594;9.938;2023-04-10T13:16:52;7.25;;;4.93;;
15451;SDS011;7827;53.594;9.938;2023-04-10T13:19:21;6.85;;;5.43;;
15451;SDS011;7827;53.594;9.938;2023-04-10T13:21:49;6.15;;;5.40;;
15451;SDS011;7827;53.594;9.938;2023-04-10T13:24:17;5.97;;;5.07;;
15451;SDS011;7827;53.594;9.938;2023-04-10T13:26:45;6.00;;;5.40;;
15451;SDS011;7827;53.594;9.938;2023-04-10T13:29:15;5.68;;;5.05;;
15451;SDS011;7827;53.594;9.938;2023-04-10T13:31:43;7.22;;;5.40;;
15451;SDS011;7827;53.594;9.938;2023-04-10T13:34:12;7.75;;;5.30;;
15451;SDS011;7827;53.594;9.938;2023-04-10T13:36:40;5.68;;;5.07;;
15451;SDS011;7827;53.594;9.938;2023-04-10T13:39:08;6.55;;;5.13;;
15451;SDS011;7827;53.594;9.938;2023-04-10T13:41:37;7.15;;;4.97;;
15451;SDS011;7827;53.594;9.938;2023-04-10T13:44:05;5.70;;;4.65;;
15451;SDS011;7827;53.594;9.938;2023-04-10T13:46:35;7.78;;;5.00;;
15451;SDS011;7827;53.594;9.938;2023-04-10T13:49:03;6.63;;;5.53;;
15451;SDS011;7827;53.594;9.938;2023-04-10T13:51:31;8.35;;;5.40;;
15451;SDS011;7827;53.594;9.938;2023-04-10T13:54:00;6.65;;;5.53;;
15451;SDS011;7827;53.594;9.938;2023-04-10T13:56:30;7.03;;;5.35;;
15451;SDS011;7827;53.594;9.938;2023-04-10T13:58:58;8.00;;;5.10;;
15451;SDS011;7827;53.594;9.938;2023-04-10T14:01:26;5.53;;;4.97;;
15451;SDS011;7827;53.594;9.938;2023-04-10T14:03:56;6.95;;;5.45;;
15451;SDS011;7827;53.594;9.938;2023-04-10T14:06:24;7.90;;;5.22;;
15451;SDS011;7827;53.594;9.938;2023-04-10T14:08:53;9.73;;;5.55;;
15451;SDS011;7827;53.594;9.938;2023-04-10T14:11:21;5.97;;;5.40;;
15451;SDS011;7827;53.594;9.938;2023-04-10T14:13:50;6.03;;;5.07;;
15451;SDS011;7827;53.594;9.938;2023-04-10T14:16:18;6.68;;;6.07;;
15451;SDS011;7827;53.594;9.938;2023-04-10T14:18:46;6.63;;;5.53;;
15451;SDS011;7827;53.594;9.938;2023-04-10T14:21:16;5.75;;;5.18;;
15451;SDS011;7827;53.594;9.938;2023-04-10T14:23:46;7.88;;;6.40;;
15451;SDS011;7827;53.594;9.938;2023-04-10T14:26:14;6.47;;;5.88;;
15451;SDS011;7827;53.594;9.938;2023-04-10T14:28:42;7.53;;;6.28;;
15451;SDS011;7827;53.594;9.938;2023-04-10T14:31:11;9.15;;;6.53;;
15451;SDS011;7827;53.594;9.938;2023-04-10T14:33:39;6.93;;;6.22;;
15451;SDS011;7827;53.594;9.938;2023-04-10T14:36:07;7.35;;;6.35;;
15451;SDS011;7827;53.594;9.938;2023-04-10T14:38:37;7.25;;;6.55;;
15451;SDS011;7827;53.594;9.938;2023-04-10T14:41:06;8.00;;;6.47;;
15451;SDS011;7827;53.594;9.938;2023-04-10T14:43:34;10.65;;;6.03;;
15451;SDS011;7827;53.594;9.938;2023-04-10T14:46:03;8.43;;;6.78;;
15451;SDS011;7827;53.594;9.938;2023-04-10T14:48:32;9.57;;;6.35;;
15451;SDS011;7827;53.594;9.938;2023-04-10T14:51:01;9.00;;;7.28;;
15451;SDS011;7827;53.594;9.938;2023-04-10T14:53:30;7.75;;;6.53;;
15451;SDS011;7827;53.594;9.938;2023-04-10T14:56:00;9.38;;;7.35;;
15451;SDS011;7827;53.594;9.938;2023-04-10T14:58:38;10.77;;;6.65;;
15451;SDS011;7827;53.594;9.938;2023-04-10T15:01:07;8.10;;;6.30;;
15451;SDS011;7827;53.594;9.938;2023-04-10T15:03:37;10.00;;;7.65;;
15451;SDS011;7827;53.594;9.938;2023-04-10T15:06:06;7.63;;;6.70;;
15451;SDS011;7827;53.594;9.938;2023-04-10T15:08:35;9.02;;;6.70;;
15451;SDS011;7827;53.594;9.938;2023-04-10T15:11:05;7.43;;;6.70;;
15451;SDS011;7827;53.594;9.938;2023-04-10T15:13:34;7.95;;;7.15;;
15451;SDS011;7827;53.594;9.938;2023-04-10T15:16:05;11.70;;;7.13;;
15451;SDS011;7827;53.594;9.938;2023-04-10T15:18:34;7.63;;;6.82;;
15451;SDS011;7827;53.594;9.938;2023-04-10T15:21:03;8.63;;;7.15;;
15451;SDS011;7827;53.594;9.938;2023-04-10T15:23:32;9.63;;;7.90;;
15451;SDS011;7827;53.594;9.938;2023-04-10T15:26:00;7.90;;;7.10;;
15451;SDS011;7827;53.594;9.938;2023-04-10T15:28:30;9.82;;;7.07;;